createdAt,value
2023-04-18T00:00:50.703Z,102086.88
2023-04-18T00:03:18.583Z,102093.19
2023-04-18T00:05:48.986Z,102083.53
2023-04-18T00:08:16.866Z,102085.22
2023-04-18T00:10:46.123Z,102083.75
2023-04-18T00:13:14.513Z,102088.16
2023-04-18T00:15:43.803Z,102084.41
2023-04-18T00:18:12.808Z,102086.25
2023-04-18T00:20:41.076Z,102085.88
2023-04-18T00:23:08.761Z,102088.78
2023-04-18T00:25:37.570Z,102078.09
2023-04-18T00:28:06.732Z,102088.78
2023-04-18T00:30:34.467Z,102086.69
2023-04-18T00:33:04.588Z,102091.50
2023-04-18T00:35:32.898Z,102094.44
2023-04-18T00:38:01.174Z,102093.38
2023-04-18T00:40:28.842Z,102087.94
2023-04-18T00:42:56.894Z,102088.16
2023-04-18T00:45:27.049Z,102086.06
2023-04-18T00:47:55.963Z,102087.34
2023-04-18T00:50:24.550Z,102085.25
2023-04-18T00:52:53.118Z,102083.59
2023-04-18T00:55:21.247Z,102086.69
2023-04-18T00:57:49.267Z,102085.88
2023-04-18T01:00:17.510Z,102078.75
2023-04-18T01:02:47.842Z,102084.22
2023-04-18T01:05:15.881Z,102087.34
2023-04-18T01:07:44.206Z,102083.16
2023-04-18T01:10:12.670Z,102082.72
2023-04-18T01:12:40.670Z,102083.78
2023-04-18T01:15:09.653Z,102087.94
2023-04-18T01:17:38.418Z,102085.63
2023-04-18T01:20:09.543Z,102091.06
2023-04-18T01:22:37.281Z,102087.72
2023-04-18T01:25:11.906Z,102087.31
2023-04-18T01:27:39.548Z,102090.03
2023-04-18T01:30:08.999Z,102091.31
2023-04-18T01:32:36.691Z,102090.06
2023-04-18T01:35:05.321Z,102090.47
2023-04-18T01:37:33.199Z,102090.28
2023-04-18T01:40:00.873Z,102077.72
2023-04-18T01:42:31.351Z,102084.00
2023-04-18T01:44:59.024Z,102074.56
2023-04-18T01:47:27.916Z,102078.75
2023-04-18T01:49:55.987Z,102077.91
2023-04-18T01:52:23.971Z,102078.75
2023-04-18T01:54:51.774Z,102082.31
2023-04-18T01:57:19.532Z,102077.09
2023-04-18T01:59:48.601Z,102078.97
2023-04-18T02:02:16.375Z,102071.66
2023-04-18T02:04:44.523Z,102076.03
2023-04-18T02:07:12.254Z,102072.03
2023-04-18T02:09:40.224Z,102075.59
2023-04-18T02:12:08.739Z,102069.31
2023-04-18T02:14:37.515Z,102076.22
2023-04-18T02:17:06.566Z,102070.78
2023-04-18T02:19:34.584Z,102082.31
2023-04-18T02:22:02.266Z,102078.97
2023-04-18T02:24:30.229Z,102077.72
2023-04-18T02:26:58.187Z,102077.47
2023-04-18T02:29:26.455Z,102086.50
2023-04-18T02:31:54.090Z,102083.16
2023-04-18T02:34:23.094Z,102090.47
2023-04-18T02:36:51.274Z,102080.63
2023-04-18T02:39:18.958Z,102089.41
2023-04-18T02:41:46.956Z,102086.69
2023-04-18T02:44:14.845Z,102092.75
2023-04-18T02:46:42.709Z,102081.88
2023-04-18T02:49:11.486Z,102091.94
2023-04-18T02:51:40.911Z,102093.38
2023-04-18T02:54:08.652Z,102090.03
2023-04-18T02:56:40.238Z,102087.31
2023-04-18T02:59:08.087Z,102087.75
2023-04-18T03:01:36.151Z,102093.56
2023-04-18T03:04:03.887Z,102088.78
2023-04-18T03:06:32.113Z,102088.13
2023-04-18T03:09:01.164Z,102087.09
2023-04-18T03:11:28.827Z,102095.25
2023-04-18T03:13:56.934Z,102093.38
2023-04-18T03:16:24.619Z,102095.06
2023-04-18T03:18:52.627Z,102095.69
2023-04-18T03:21:20.298Z,102099.63
2023-04-18T03:23:48.267Z,102098.38
2023-04-18T03:26:17.310Z,102099.44
2023-04-18T03:28:45.379Z,102096.72
2023-04-18T03:31:13.124Z,102092.75
2023-04-18T03:33:42.260Z,102102.41
2023-04-18T03:36:10.570Z,102098.44
2023-04-18T03:38:40.547Z,102099.47
2023-04-18T03:41:08.246Z,102104.06
2023-04-18T03:43:37.751Z,102099.47
2023-04-18T03:46:06.016Z,102098.44
2023-04-18T03:48:37.372Z,102091.94
2023-04-18T03:51:07.295Z,102092.56
2023-04-18T03:53:35.674Z,102094.25
2023-04-18T03:56:03.487Z,102095.72
2023-04-18T03:58:31.654Z,102096.53
2023-04-18T04:01:01.294Z,102103.69
2023-04-18T04:03:29.154Z,102104.94
2023-04-18T04:05:57.975Z,102105.97
2023-04-18T04:08:27.673Z,102113.09
2023-04-18T04:10:55.900Z,102109.31
2023-04-18T04:13:23.913Z,102108.50
2023-04-18T04:15:52.663Z,102112.66
2023-04-18T04:18:25.390Z,102112.03
2023-04-18T04:20:53.063Z,102125.22
2023-04-18T04:23:20.958Z,102130.28
2023-04-18T04:25:48.934Z,102116.66
2023-04-18T04:28:17.103Z,102127.13
2023-04-18T04:30:44.865Z,102127.97
2023-04-18T04:33:12.678Z,102129.00
2023-04-18T04:35:41.750Z,102127.34
2023-04-18T04:38:09.764Z,102123.75
2023-04-18T04:40:37.404Z,102130.88
2023-04-18T04:43:05.540Z,102125.25
2023-04-18T04:45:33.390Z,102128.59
2023-04-18T04:48:01.506Z,102127.31
2023-04-18T04:50:29.424Z,102136.13
2023-04-18T04:52:58.791Z,102132.16
2023-04-18T04:55:26.660Z,102134.44
2023-04-18T04:57:55.576Z,102142.59
2023-04-18T05:00:23.704Z,102149.94
2023-04-18T05:02:53.306Z,102139.66
2023-04-18T05:05:21.637Z,102139.88
2023-04-18T05:07:49.305Z,102144.50
2023-04-18T05:10:18.316Z,102140.72
2023-04-18T05:12:46.248Z,102135.28
2023-04-18T05:15:16.866Z,102148.69
2023-04-18T05:17:44.386Z,102150.34
2023-04-18T05:20:12.538Z,102151.41
2023-04-18T05:22:40.726Z,102153.91
2023-04-18T05:25:09.186Z,102147.00
2023-04-18T05:27:38.562Z,102145.53
2023-04-18T05:30:07.478Z,102144.28
2023-04-18T05:32:35.305Z,102151.41
2023-04-18T05:35:03.188Z,102154.31
2023-04-18T05:37:31.323Z,102149.72
2023-04-18T05:40:00.725Z,102154.31
2023-04-18T05:42:28.833Z,102149.72
2023-04-18T05:44:58.280Z,102148.06
2023-04-18T05:47:28.396Z,102153.50
2023-04-18T05:49:57.304Z,102151.38
2023-04-18T05:52:26.008Z,102146.53
2023-04-18T05:54:54.301Z,102151.16
2023-04-18T05:57:21.943Z,102145.06
2023-04-18T05:59:49.662Z,102155.13
2023-04-18T06:02:19.218Z,102162.25
2023-04-18T06:04:48.642Z,102156.59
2023-04-18T06:07:16.931Z,102157.84
2023-04-18T06:09:44.587Z,102156.19
2023-04-18T06:12:12.302Z,102160.34
2023-04-18T06:14:40.239Z,102158.06
2023-04-18T06:17:10.053Z,102158.47
2023-04-18T06:19:39.740Z,102162.44
2023-04-18T06:22:07.429Z,102161.38
2023-04-18T06:24:35.089Z,102160.97
2023-04-18T06:27:03.465Z,102164.94
2023-04-18T06:29:33.136Z,102164.50
2023-04-18T06:32:00.892Z,102170.38
2023-04-18T06:34:28.990Z,102169.31
2023-04-18T06:36:58.620Z,102177.69
2023-04-18T06:39:27.839Z,102173.28
2023-04-18T06:41:55.461Z,102173.28
2023-04-18T06:44:23.135Z,102179.97
2023-04-18T06:46:50.969Z,102176.63
2023-04-18T06:49:19.748Z,102175.41
2023-04-18T06:51:48.402Z,102182.72
2023-04-18T06:54:17.472Z,102182.28
2023-04-18T06:56:45.534Z,102185.19
2023-04-18T06:59:13.288Z,102187.50
2023-04-18T07:01:42.646Z,102181.19
2023-04-18T07:04:10.790Z,102175.25
2023-04-18T07:06:39.177Z,102182.59
2023-04-18T07:09:06.833Z,102179.66
2023-04-18T07:11:35.891Z,102175.44
2023-04-18T07:14:03.749Z,102181.03
2023-04-18T07:16:31.933Z,102174.09
2023-04-18T07:18:59.620Z,102181.63
2023-04-18T07:21:27.765Z,102177.75
2023-04-18T07:23:55.488Z,102194.56
2023-04-18T07:26:23.332Z,102189.97
2023-04-18T07:28:52.371Z,102183.19
2023-04-18T07:31:20.095Z,102196.47
2023-04-18T07:33:48.195Z,102194.34
2023-04-18T07:36:15.905Z,102202.47
2023-04-18T07:38:44.814Z,102190.91
2023-04-18T07:41:12.427Z,102189.66
2023-04-18T07:43:40.468Z,102191.88
2023-04-18T07:46:09.605Z,102188.97
2023-04-18T07:48:38.286Z,102189.50
2023-04-18T07:51:06.210Z,102190.34
2023-04-18T07:53:33.905Z,102194.97
2023-04-18T07:56:01.653Z,102197.47
2023-04-18T07:58:29.376Z,102196.41
2023-04-18T08:00:57.976Z,102202.28
2023-04-18T08:03:27.586Z,102197.88
2023-04-18T08:05:55.829Z,102197.28
2023-04-18T08:08:23.885Z,102196.41
2023-04-18T08:10:51.554Z,102195.81
2023-04-18T08:13:19.211Z,102198.28
2023-04-18T08:15:48.142Z,102197.28
2023-04-18T08:18:15.815Z,102199.16
2023-04-18T08:20:44.789Z,102203.34
2023-04-18T08:23:13.514Z,102200.97
2023-04-18T08:25:41.287Z,102204.72
2023-04-18T08:28:09.551Z,102207.91
2023-04-18T08:30:38.360Z,102203.06
2023-04-18T08:33:06.044Z,102214.59
2023-04-18T08:35:35.240Z,102208.50
2023-04-18T08:38:04.332Z,102194.41
2023-04-18T08:40:32.061Z,102203.38
2023-04-18T08:43:04.774Z,102194.56
2023-04-18T08:45:33.212Z,102196.00
2023-04-18T08:48:03.402Z,102202.88
2023-04-18T08:50:32.329Z,102197.59
2023-04-18T08:53:01.316Z,102198.38
2023-04-18T08:55:30.683Z,102194.97
2023-04-18T08:57:58.502Z,102197.41
2023-04-18T09:00:27.840Z,102196.44
2023-04-18T09:02:57.043Z,102199.09
2023-04-18T09:05:27.102Z,102204.88
2023-04-18T09:07:56.081Z,102201.16
2023-04-18T09:10:29.424Z,102205.63
2023-04-18T09:12:59.908Z,102204.88
2023-04-18T09:15:29.449Z,102205.25
2023-04-18T09:17:59.783Z,102202.66
2023-04-18T09:20:34.332Z,102218.84
2023-04-18T09:23:04.088Z,102203.03
2023-04-18T09:25:34.639Z,102204.63
2023-04-18T09:28:06.541Z,102204.94
2023-04-18T09:30:38.180Z,102210.63
2023-04-18T09:33:09.697Z,102208.47
2023-04-18T09:35:38.180Z,102206.16
2023-04-18T09:38:07.203Z,102209.28
2023-04-18T09:40:34.907Z,102203.81
2023-04-18T09:43:17.995Z,102210.50
2023-04-18T09:45:47.948Z,102214.53
2023-04-18T09:48:18.387Z,102216.47
2023-04-18T09:50:48.182Z,102222.84
2023-04-18T09:53:20.955Z,102213.13
2023-04-18T09:55:53.301Z,102207.28
2023-04-18T09:58:23.560Z,102208.09
2023-04-18T10:00:55.028Z,102200.16
2023-04-18T10:03:29.774Z,102199.34
2023-04-18T10:05:57.937Z,102204.72
2023-04-18T10:08:26.668Z,102196.63
2023-04-18T10:10:56.397Z,102207.47
2023-04-18T10:13:24.519Z,102202.84
2023-04-18T10:15:54.645Z,102200.44
2023-04-18T10:18:24.944Z,102204.63
2023-04-18T10:21:02.586Z,102190.44
2023-04-18T10:23:38.708Z,102196.31
2023-04-18T10:26:07.127Z,102195.81
2023-04-18T10:28:58.186Z,102199.63
2023-04-18T10:31:28.660Z,102198.56
2023-04-18T10:34:04.640Z,102204.28
2023-04-18T10:36:34.779Z,102192.59
2023-04-18T10:39:04.578Z,102202.25
2023-04-18T10:41:33.857Z,102201.31
2023-04-18T10:44:19.289Z,102198.56
2023-04-18T10:47:33.662Z,102193.78
2023-04-18T10:50:08.067Z,102201.41
2023-04-18T10:52:36.452Z,102196.03
2023-04-18T10:55:16.417Z,102195.31
2023-04-18T10:57:45.820Z,102188.25
2023-04-18T11:00:15.596Z,102194.09
2023-04-18T11:02:50.588Z,102199.19
2023-04-18T11:05:24.573Z,102189.88
2023-04-18T11:07:52.886Z,102193.59
2023-04-18T11:10:22.593Z,102197.28
2023-04-18T11:12:51.568Z,102201.69
2023-04-18T11:15:22.342Z,102199.75
2023-04-18T11:17:58.515Z,102201.78
2023-04-18T11:20:28.361Z,102204.91
2023-04-18T11:23:00.687Z,102192.72
2023-04-18T11:25:30.066Z,102192.50
2023-04-18T11:28:00.662Z,102191.88
2023-04-18T11:30:31.256Z,102184.50
2023-04-18T11:32:58.915Z,102187.00
2023-04-18T11:35:28.772Z,102186.28
2023-04-18T11:37:56.569Z,102188.31
2023-04-18T11:40:24.760Z,102178.50
2023-04-18T11:42:55.396Z,102183.50
2023-04-18T11:45:22.846Z,102176.09
2023-04-18T11:47:51.745Z,102183.22
2023-04-18T11:50:19.442Z,102185.53
2023-04-18T11:52:53.017Z,102177.28
2023-04-18T11:55:23.808Z,102173.28
2023-04-18T11:57:53.321Z,102170.31
2023-04-18T12:00:31.412Z,102170.16
2023-04-18T12:03:01.941Z,102167.16
2023-04-18T12:05:31.980Z,102174.06
2023-04-18T12:08:08.651Z,102186.56
2023-04-18T12:10:36.942Z,102185.56
2023-04-18T12:13:09.116Z,102176.00
2023-04-18T12:15:40.442Z,102183.25
2023-04-18T12:18:09.621Z,102176.59
2023-04-18T12:20:39.313Z,102173.59
2023-04-18T12:23:09.233Z,102178.78
2023-04-18T12:25:37.520Z,102171.53
2023-04-18T12:28:16.687Z,102174.59
2023-04-18T12:30:44.337Z,102176.25
2023-04-18T12:33:12.474Z,102165.53
2023-04-18T12:35:41.500Z,102173.28
2023-04-18T12:38:10.940Z,102174.34
2023-04-18T12:40:40.160Z,102167.50
2023-04-18T12:43:08.851Z,102170.53
2023-04-18T12:45:36.935Z,102169.44
2023-04-18T12:48:05.167Z,102164.19
2023-04-18T12:50:32.983Z,102162.94
2023-04-18T12:53:03.318Z,102173.44
2023-04-18T12:55:33.065Z,102164.88
2023-04-18T12:58:01.304Z,102166.25
2023-04-18T13:00:31.540Z,102159.53
2023-04-18T13:03:00.048Z,102152.84
2023-04-18T13:05:33.128Z,102156.94
2023-04-18T13:08:15.463Z,102153.69
2023-04-18T13:10:46.262Z,102156.44
2023-04-18T13:13:14.784Z,102148.44
2023-04-18T13:15:42.542Z,102147.34
2023-04-18T13:18:10.230Z,102145.75
2023-04-18T13:20:38.482Z,102147.00
2023-04-18T13:23:06.156Z,102144.75
2023-04-18T13:25:33.929Z,102152.09
2023-04-18T13:28:03.307Z,102149.59
2023-04-18T13:30:31.905Z,102143.78
2023-04-18T13:32:59.747Z,102136.94
2023-04-18T13:35:28.586Z,102131.84
2023-04-18T13:37:56.255Z,102134.41
2023-04-18T13:40:24.199Z,102136.06
2023-04-18T13:42:52.289Z,102137.56
2023-04-18T13:45:21.634Z,102134.81
2023-04-18T13:47:49.795Z,102137.03
2023-04-18T13:50:17.466Z,102136.53
2023-04-18T13:52:46.170Z,102132.69
2023-04-18T13:55:14.138Z,102127.53
2023-04-18T13:57:42.178Z,102136.69
2023-04-18T14:00:14.337Z,102125.97
2023-04-18T14:02:43.695Z,102132.63
2023-04-18T14:05:12.089Z,102125.47
2023-04-18T14:07:39.789Z,102124.66
2023-04-18T14:10:08.992Z,102127.66
2023-04-18T14:12:36.648Z,102130.34
2023-04-18T14:15:04.815Z,102137.56
2023-04-18T14:17:32.853Z,102134.75
2023-04-18T14:20:03.002Z,102125.94
2023-04-18T14:22:31.045Z,102120.75
2023-04-18T14:24:59.053Z,102128.69
2023-04-18T14:27:27.250Z,102128.63
2023-04-18T14:29:54.973Z,102120.03
2023-04-18T14:32:22.910Z,102119.47
2023-04-18T14:34:50.663Z,102120.53
2023-04-18T14:37:19.999Z,102119.69
2023-04-18T14:39:48.435Z,102111.72
2023-04-18T14:42:17.057Z,102113.13
2023-04-18T14:44:45.180Z,102100.97
2023-04-18T14:47:12.851Z,102110.88
2023-04-18T14:49:40.662Z,102100.44
2023-04-18T14:52:09.794Z,102109.31
2023-04-18T14:54:38.774Z,102096.88
2023-04-18T14:57:08.124Z,102108.69
2023-04-18T14:59:36.344Z,102102.97
2023-04-18T15:02:04.083Z,102105.72
2023-04-18T15:04:31.971Z,102091.09
2023-04-18T15:07:00.146Z,102093.28
2023-04-18T15:09:28.173Z,102099.13
2023-04-18T15:11:58.137Z,102104.94
2023-04-18T15:14:26.258Z,102101.69
2023-04-18T15:16:54.389Z,102110.50
2023-04-18T15:19:22.217Z,102102.78
2023-04-18T15:21:49.876Z,102102.19
2023-04-18T15:24:17.934Z,102108.28
2023-04-18T15:26:45.576Z,102103.34
2023-04-18T15:29:15.152Z,102099.97
2023-04-18T15:31:42.882Z,102106.47
2023-04-18T15:34:11.760Z,102101.88
2023-04-18T15:36:39.474Z,102098.53
2023-04-18T15:39:09.269Z,102096.03
2023-04-18T15:41:37.903Z,102092.28
2023-04-18T15:44:09.291Z,102105.19
2023-04-18T15:46:38.559Z,102098.03
2023-04-18T15:49:06.534Z,102119.47
2023-04-18T15:51:34.279Z,102107.59
2023-04-18T15:54:01.930Z,102094.13
2023-04-18T15:56:33.077Z,102109.22
2023-04-18T15:59:02.140Z,102112.53
2023-04-18T16:01:30.188Z,102110.63
2023-04-18T16:03:59.558Z,102112.06
2023-04-18T16:06:27.373Z,102115.03
2023-04-18T16:08:55.291Z,102114.19
2023-04-18T16:11:25.998Z,102113.63
2023-04-18T16:13:53.810Z,102113.13
2023-04-18T16:16:21.482Z,102120.72
2023-04-18T16:18:49.436Z,102124.06
2023-04-18T16:21:18.781Z,102119.06
2023-04-18T16:23:46.381Z,102113.50
2023-04-18T16:26:14.528Z,102116.25
2023-04-18T16:28:42.254Z,102119.56
2023-04-18T16:31:10.324Z,102120.09
2023-04-18T16:33:38.219Z,102124.50
2023-04-18T16:36:07.126Z,102120.31
2023-04-18T16:38:36.535Z,102121.69
2023-04-18T16:41:04.240Z,102119.44
2023-04-18T16:43:36.539Z,102120.91
2023-04-18T16:46:04.647Z,102129.09
2023-04-18T16:48:32.332Z,102129.25
2023-04-18T16:51:00.563Z,102133.44
2023-04-18T16:53:28.305Z,102125.28
2023-04-18T16:55:57.551Z,102124.38
2023-04-18T16:58:25.597Z,102123.56
2023-04-18T17:00:53.650Z,102129.56
2023-04-18T17:03:21.544Z,102135.13
2023-04-18T17:05:49.723Z,102136.97
2023-04-18T17:08:17.859Z,102127.56
2023-04-18T17:10:45.836Z,102134.56
2023-04-18T17:13:14.897Z,102128.94
2023-04-18T17:15:43.330Z,102136.44
2023-04-18T17:18:11.065Z,102143.31
2023-04-18T17:20:39.092Z,102136.63
2023-04-18T17:23:06.734Z,102135.22
2023-04-18T17:25:34.816Z,102132.97
2023-04-18T17:28:03.361Z,102140.22
2023-04-18T17:30:32.680Z,102138.78
2023-04-18T17:33:00.718Z,102139.38
2023-04-18T17:35:28.409Z,102141.69
2023-04-18T17:37:56.639Z,102148.03
2023-04-18T17:40:24.579Z,102145.44
2023-04-18T17:42:52.770Z,102145.44
2023-04-18T17:45:21.239Z,102146.19
2023-04-18T17:47:51.188Z,102145.03
2023-04-18T17:50:19.539Z,102151.38
2023-04-18T17:52:47.242Z,102143.13
2023-04-18T17:55:16.800Z,102150.59
2023-04-18T17:57:44.566Z,102156.63
2023-04-18T18:00:15.046Z,102154.25
2023-04-18T18:02:46.660Z,102155.47
2023-04-18T18:05:16.961Z,102163.69
2023-04-18T18:07:47.435Z,102164.06
2023-04-18T18:10:19.493Z,102162.66
2023-04-18T18:12:47.157Z,102167.06
2023-04-18T18:15:15.037Z,102165.06
2023-04-18T18:17:43.163Z,102174.25
2023-04-18T18:20:11.663Z,102170.69
2023-04-18T18:22:41.058Z,102168.78
2023-04-18T18:25:09.738Z,102170.94
2023-04-18T18:27:37.768Z,102176.44
2023-04-18T18:30:06.636Z,102182.16
2023-04-18T18:32:34.969Z,102174.91
2023-04-18T18:35:02.941Z,102183.50
2023-04-18T18:37:30.817Z,102182.16
2023-04-18T18:40:00.563Z,102197.91
2023-04-18T18:42:28.198Z,102187.56
2023-04-18T18:44:55.881Z,102186.88
2023-04-18T18:47:23.977Z,102189.03
2023-04-18T18:49:51.642Z,102190.06
2023-04-18T18:52:19.334Z,102194.50
2023-04-18T18:54:47.349Z,102209.25
2023-04-18T18:57:16.573Z,102199.16
2023-04-18T18:59:44.210Z,102200.59
2023-04-18T19:02:12.595Z,102205.13
2023-04-18T19:04:40.457Z,102207.00
2023-04-18T19:07:08.361Z,102212.16
2023-04-18T19:09:37.184Z,102207.59
2023-04-18T19:12:06.097Z,102217.88
2023-04-18T19:14:35.200Z,102224.91
2023-04-18T19:17:03.466Z,102228.81
2023-04-18T19:19:31.904Z,102231.31
2023-04-18T19:22:00.977Z,102231.63
2023-04-18T19:24:28.623Z,102228.66
2023-04-18T19:26:56.731Z,102229.25
2023-04-18T19:29:24.454Z,102237.94
2023-04-18T19:31:53.725Z,102237.06
2023-04-18T19:34:22.409Z,102233.69
2023-04-18T19:36:50.098Z,102240.31
2023-04-18T19:39:18.445Z,102238.78
2023-04-18T19:41:46.838Z,102227.34
2023-04-18T19:44:14.840Z,102234.31
2023-04-18T19:46:42.488Z,102236.38
2023-04-18T19:49:11.597Z,102234.31
2023-04-18T19:51:40.295Z,102230.75
2023-04-18T19:54:07.886Z,102233.66
2023-04-18T19:56:35.602Z,102228.19
2023-04-18T19:59:05.755Z,102230.84
2023-04-18T20:01:33.836Z,102220.97
2023-04-18T20:04:02.009Z,102226.50
2023-04-18T20:06:31.655Z,102225.22
2023-04-18T20:08:59.295Z,102215.47
2023-04-18T20:11:27.191Z,102220.59
2023-04-18T20:13:56.469Z,102213.91
2023-04-18T20:16:24.863Z,102215.22
2023-04-18T20:18:54.875Z,102217.16
2023-04-18T20:21:23.097Z,102212.69
2023-04-18T20:23:52.109Z,102215.06
2023-04-18T20:26:20.086Z,102217.66
2023-04-18T20:28:47.758Z,102223.94
2023-04-18T20:31:15.570Z,102210.47
2023-04-18T20:33:43.626Z,102217.25
2023-04-18T20:36:11.301Z,102210.47
2023-04-18T20:38:40.424Z,102208.81
2023-04-18T20:41:10.681Z,102207.44
2023-04-18T20:43:38.720Z,102207.16
2023-04-18T20:46:06.858Z,102208.28
2023-04-18T20:48:34.956Z,102207.28
2023-04-18T20:51:02.600Z,102207.94
2023-04-18T20:53:30.593Z,102210.06
2023-04-18T20:55:58.280Z,102202.25
2023-04-18T20:58:27.307Z,102212.34
2023-04-18T21:00:55.393Z,102204.13
2023-04-18T21:03:23.276Z,102207.13
2023-04-18T21:05:51.464Z,102210.72
2023-04-18T21:08:19.264Z,102201.41
2023-04-18T21:10:47.253Z,102193.41
2023-04-18T21:13:14.870Z,102198.47
2023-04-18T21:15:44.028Z,102200.59
2023-04-18T21:18:11.754Z,102198.00
2023-04-18T21:20:39.787Z,102210.81
2023-04-18T21:23:07.782Z,102203.50
2023-04-18T21:25:35.382Z,102203.72
2023-04-18T21:28:03.027Z,102200.63
2023-04-18T21:30:30.968Z,102198.13
2023-04-18T21:33:00.028Z,102204.03
2023-04-18T21:35:30.054Z,102198.16
2023-04-18T21:37:57.957Z,102201.19
2023-04-18T21:40:26.772Z,102198.84
2023-04-18T21:42:54.432Z,102203.03
2023-04-18T21:45:22.345Z,102197.00
2023-04-18T21:47:50.865Z,102191.16
2023-04-18T21:50:20.201Z,102190.53
2023-04-18T21:52:47.901Z,102186.34
2023-04-18T21:55:15.908Z,102193.28
2023-04-18T21:57:43.630Z,102192.69
2023-04-18T22:00:12.772Z,102189.72
2023-04-18T22:02:41.059Z,102191.03
2023-04-18T22:05:09.103Z,102189.38
2023-04-18T22:07:50.101Z,102188.31
2023-04-18T22:10:25.182Z,102185.59
2023-04-18T22:12:53.974Z,102176.19
2023-04-18T22:15:21.991Z,102186.28
2023-04-18T22:17:50.355Z,102176.47
2023-04-18T22:20:18.417Z,102179.00
2023-04-18T22:22:47.592Z,102176.91
2023-04-18T22:25:15.378Z,102172.09
2023-04-18T22:27:43.560Z,102182.22
2023-04-18T22:30:12.498Z,102187.88
2023-04-18T22:32:41.588Z,102175.75
2023-04-18T22:35:10.240Z,102183.75
2023-04-18T22:37:39.234Z,102174.72
2023-04-18T22:40:09.905Z,102165.91
2023-04-18T22:42:38.815Z,102171.16
2023-04-18T22:45:08.483Z,102173.06
2023-04-18T22:47:36.371Z,102167.59
2023-04-18T22:50:04.432Z,102168.88
2023-04-18T22:52:32.074Z,102158.00
2023-04-18T22:54:59.722Z,102165.53
2023-04-18T22:57:29.986Z,102160.28
2023-04-18T22:59:57.811Z,102156.94
2023-04-18T23:02:25.677Z,102166.97
2023-04-18T23:04:54.115Z,102153.16
2023-04-18T23:07:21.848Z,102156.31
2023-04-18T23:09:49.505Z,102160.28
2023-04-18T23:12:17.580Z,102149.59
2023-04-18T23:14:46.525Z,102149.38
2023-04-18T23:17:14.207Z,102152.13
2023-04-18T23:19:42.143Z,102153.56
2023-04-18T23:22:09.848Z,102160.50
2023-04-18T23:24:37.746Z,102157.56
2023-04-18T23:27:05.824Z,102154.41
2023-04-18T23:29:38.871Z,102155.91
2023-04-18T23:32:08.100Z,102156.50
2023-04-18T23:34:36.241Z,102159.25
2023-04-18T23:37:03.964Z,102163.25
2023-04-18T23:39:32.065Z,102152.97
2023-04-18T23:41:59.727Z,102157.38
2023-04-18T23:44:27.677Z,102167.19
2023-04-18T23:46:55.494Z,102163.00
2023-04-18T23:49:24.818Z,102170.16
2023-04-18T23:51:52.463Z,102157.38
2023-04-18T23:54:20.408Z,102160.09
2023-04-18T23:56:48.084Z,102165.97
2023-04-18T23:59:16.474Z,102167.41
